createdAt,value
2023-03-15T00:00:11.994Z,0.43
2023-03-15T00:02:58.135Z,0.42
2023-03-15T00:05:43.934Z,0.42
2023-03-15T00:08:29.946Z,0.41
2023-03-15T00:11:16.389Z,0.42
2023-03-15T00:14:03.923Z,0.41
2023-03-15T00:16:49.956Z,0.42
2023-03-15T00:19:35.983Z,0.42
2023-03-15T00:22:23.270Z,0.40
2023-03-15T00:25:09.616Z,0.43
2023-03-15T00:27:55.424Z,0.45
2023-03-15T00:30:42.668Z,0.45
2023-03-15T00:33:28.614Z,0.47
2023-03-15T00:36:14.584Z,0.51
2023-03-15T00:39:00.884Z,0.54
2023-03-15T00:41:47.466Z,0.64
2023-03-15T00:44:33.660Z,0.73
2023-03-15T00:47:20.677Z,0.80
2023-03-15T00:50:06.865Z,0.86
2023-03-15T00:52:52.864Z,0.97
2023-03-15T00:55:39.132Z,1.07
2023-03-15T00:58:27.520Z,1.15
2023-03-15T01:01:14.216Z,1.20
2023-03-15T01:04:02.158Z,1.32
2023-03-15T01:06:48.457Z,1.38
2023-03-15T01:09:34.701Z,1.42
2023-03-15T01:12:20.476Z,1.45
2023-03-15T01:15:07.695Z,1.52
2023-03-15T01:17:53.796Z,1.56
2023-03-15T01:20:41.031Z,1.63
2023-03-15T01:23:27.008Z,1.64
2023-03-15T01:26:13.548Z,1.67
2023-03-15T01:28:59.780Z,1.73
2023-03-15T01:31:46.484Z,1.77
2023-03-15T01:34:32.524Z,1.78
2023-03-15T01:37:19.957Z,1.83
2023-03-15T01:40:07.175Z,1.87
2023-03-15T01:42:54.158Z,1.94
2023-03-15T01:45:52.917Z,1.94
2023-03-15T01:48:40.187Z,1.99
2023-03-15T01:51:28.233Z,2.02
2023-03-15T01:54:17.860Z,2.02
2023-03-15T01:57:05.426Z,2.03
2023-03-15T01:59:52.010Z,2.03
2023-03-15T02:02:39.117Z,2.02
2023-03-15T02:05:25.412Z,1.99
2023-03-15T02:08:11.770Z,2.02
2023-03-15T02:10:59.652Z,2.04
2023-03-15T02:13:46.194Z,2.02
2023-03-15T02:16:32.379Z,2.00
2023-03-15T02:19:26.670Z,2.01
2023-03-15T02:22:16.324Z,2.01
2023-03-15T02:25:03.082Z,2.02
2023-03-15T02:27:50.198Z,2.01
2023-03-15T02:30:36.124Z,2.02
2023-03-15T02:33:22.434Z,2.01
2023-03-15T02:36:09.385Z,2.00
2023-03-15T02:38:56.648Z,1.99
2023-03-15T02:41:43.547Z,1.97
2023-03-15T02:44:31.864Z,1.95
2023-03-15T02:47:19.793Z,1.93
2023-03-15T02:50:07.585Z,1.93
2023-03-15T02:52:53.731Z,1.91
2023-03-15T02:55:41.780Z,1.89
2023-03-15T02:58:27.677Z,1.89
2023-03-15T03:01:15.414Z,1.87
2023-03-15T03:04:01.250Z,1.83
2023-03-15T03:06:47.204Z,1.80
2023-03-15T03:09:38.058Z,1.74
2023-03-15T03:12:24.144Z,1.71
2023-03-15T03:15:10.478Z,1.65
2023-03-15T03:17:58.037Z,1.61
2023-03-15T03:20:46.087Z,1.59
2023-03-15T03:23:32.332Z,1.48
2023-03-15T03:26:19.350Z,1.45
2023-03-15T03:29:10.185Z,1.42
2023-03-15T03:31:56.821Z,1.35
2023-03-15T03:34:48.237Z,1.34
2023-03-15T03:37:35.764Z,1.30
2023-03-15T03:40:43.386Z,1.28
2023-03-15T03:43:29.744Z,1.26
2023-03-15T03:46:16.189Z,1.23
2023-03-15T03:49:07.571Z,1.27
2023-03-15T03:51:55.667Z,1.27
2023-03-15T03:54:42.569Z,1.29
2023-03-15T03:57:28.911Z,1.29
2023-03-15T04:00:15.717Z,1.32
2023-03-15T04:03:02.663Z,1.33
2023-03-15T04:05:52.741Z,1.37
2023-03-15T04:08:42.162Z,1.36
2023-03-15T04:11:31.629Z,1.38
2023-03-15T04:14:23.113Z,1.43
2023-03-15T04:17:09.657Z,1.44
2023-03-15T04:19:56.111Z,1.48
2023-03-15T04:22:49.587Z,1.51
2023-03-15T04:25:43.411Z,1.53
2023-03-15T04:28:48.027Z,1.56
2023-03-15T04:31:52.760Z,1.57
2023-03-15T04:34:43.540Z,1.59
2023-03-15T04:38:03.912Z,1.64
2023-03-15T04:41:11.138Z,1.64
2023-03-15T04:44:16.650Z,1.65
2023-03-15T04:47:15.639Z,1.66
2023-03-15T04:50:31.815Z,1.68
2023-03-15T04:53:34.167Z,1.70
2023-03-15T04:56:31.732Z,1.72
2023-03-15T04:59:29.390Z,1.74
2023-03-15T05:02:32.943Z,1.72
2023-03-15T05:05:54.265Z,1.72
2023-03-15T05:08:56.159Z,1.74
2023-03-15T05:11:55.399Z,1.74
2023-03-15T05:15:08.308Z,1.75
2023-03-15T05:18:09.959Z,1.75
2023-03-15T05:21:22.165Z,1.75
2023-03-15T05:24:27.107Z,1.77
2023-03-15T05:27:19.888Z,1.73
2023-03-15T05:30:24.658Z,1.78
2023-03-15T05:33:24.606Z,1.77
2023-03-15T05:36:35.398Z,1.79
2023-03-15T05:39:41.733Z,1.81
2023-03-15T05:42:37.208Z,1.79
2023-03-15T05:45:44.543Z,1.82
2023-03-15T05:48:53.748Z,1.85
2023-03-15T05:52:03.303Z,1.84
2023-03-15T05:55:05.028Z,1.86
2023-03-15T05:58:09.348Z,1.86
2023-03-15T06:01:21.774Z,1.88
2023-03-15T06:04:29.125Z,1.88
2023-03-15T06:07:16.695Z,1.88
2023-03-15T06:10:03.060Z,1.89
2023-03-15T06:12:50.204Z,1.94
2023-03-15T06:15:38.423Z,2.00
2023-03-15T06:18:26.157Z,2.01
2023-03-15T06:21:12.067Z,2.06
2023-03-15T06:23:58.318Z,2.13
2023-03-15T06:26:44.408Z,2.20
2023-03-15T06:29:30.762Z,2.22
2023-03-15T06:32:19.618Z,2.27
2023-03-15T06:35:06.484Z,2.33
2023-03-15T06:37:52.981Z,2.38
2023-03-15T06:40:38.820Z,2.37
2023-03-15T06:43:24.668Z,2.40
2023-03-15T06:46:10.671Z,2.41
2023-03-15T06:48:58.421Z,2.45
2023-03-15T06:51:45.822Z,2.44
2023-03-15T06:54:31.924Z,2.41
2023-03-15T06:57:18.757Z,2.43
2023-03-15T07:00:11.150Z,2.42
2023-03-15T07:02:57.494Z,2.39
2023-03-15T07:05:45.562Z,2.41
2023-03-15T07:08:31.665Z,2.37
2023-03-15T07:11:17.660Z,2.41
2023-03-15T07:14:03.577Z,2.47
2023-03-15T07:16:49.716Z,2.45
2023-03-15T07:19:39.187Z,2.54
2023-03-15T07:22:28.843Z,2.63
2023-03-15T07:25:14.633Z,2.64
2023-03-15T07:28:00.635Z,2.72
2023-03-15T07:30:53.044Z,2.79
2023-03-15T07:33:39.221Z,2.82
2023-03-15T07:36:25.047Z,2.86
2023-03-15T07:39:12.383Z,2.90
2023-03-15T07:41:58.159Z,2.89
2023-03-15T07:44:51.053Z,2.96
2023-03-15T07:47:37.089Z,3.06
2023-03-15T07:50:23.246Z,3.14
2023-03-15T07:53:09.109Z,3.16
2023-03-15T07:55:56.387Z,3.22
2023-03-15T07:58:42.538Z,3.24
2023-03-15T08:01:28.336Z,3.32
2023-03-15T08:04:14.163Z,3.36
2023-03-15T08:07:01.133Z,3.46
2023-03-15T08:09:48.308Z,3.56
2023-03-15T08:12:36.022Z,3.66
2023-03-15T08:15:21.986Z,3.75
2023-03-15T08:18:07.979Z,3.81
2023-03-15T08:20:53.922Z,3.90
2023-03-15T08:23:40.507Z,3.96
2023-03-15T08:26:26.324Z,3.98
2023-03-15T08:29:13.892Z,4.10
2023-03-15T08:32:00.062Z,4.18
2023-03-15T08:34:46.213Z,4.25
2023-03-15T08:37:32.461Z,4.33
2023-03-15T08:40:19.448Z,4.42
2023-03-15T08:43:05.602Z,4.51
2023-03-15T08:46:01.174Z,4.61
2023-03-15T08:48:47.691Z,4.73
2023-03-15T08:51:33.824Z,4.82
2023-03-15T08:54:19.737Z,5.07
2023-03-15T08:57:06.056Z,5.42
2023-03-15T08:59:51.832Z,5.53
2023-03-15T09:02:38.988Z,5.78
2023-03-15T09:05:25.861Z,5.86
2023-03-15T09:08:12.056Z,5.94
2023-03-15T09:10:58.482Z,6.25
2023-03-15T09:13:44.340Z,6.57
2023-03-15T09:16:30.068Z,6.79
2023-03-15T09:19:17.206Z,6.95
2023-03-15T09:22:16.222Z,7.24
2023-03-15T09:25:03.119Z,7.70
2023-03-15T09:27:49.256Z,7.98
2023-03-15T09:30:35.492Z,7.95
2023-03-15T09:33:22.393Z,7.94
2023-03-15T09:36:09.699Z,7.96
2023-03-15T09:38:55.453Z,7.94
2023-03-15T09:41:42.688Z,8.43
2023-03-15T09:44:40.391Z,8.55
2023-03-15T09:47:29.433Z,8.58
2023-03-15T09:50:17.547Z,8.49
2023-03-15T09:53:05.428Z,8.41
2023-03-15T09:55:51.368Z,8.40
2023-03-15T09:58:37.323Z,8.32
2023-03-15T10:01:23.513Z,8.55
2023-03-15T10:04:11.933Z,8.97
2023-03-15T10:06:58.449Z,9.29
2023-03-15T10:09:45.942Z,9.69
2023-03-15T10:12:32.723Z,10.16
2023-03-15T10:15:30.903Z,10.65
2023-03-15T10:18:19.042Z,11.24
2023-03-15T10:21:07.670Z,11.56
2023-03-15T10:23:54.234Z,11.88
2023-03-15T10:29:31.090Z,12.87
2023-03-15T10:32:18.883Z,12.96
2023-03-15T10:35:07.426Z,12.95
2023-03-15T10:37:53.388Z,13.02
2023-03-15T10:40:40.265Z,13.07
2023-03-15T10:43:29.899Z,12.89
2023-03-15T10:46:22.295Z,12.84
2023-03-15T10:49:12.154Z,12.54
2023-03-15T10:51:58.556Z,12.30
2023-03-15T10:54:45.012Z,12.22
2023-03-15T10:57:32.941Z,11.89
2023-03-15T11:00:26.933Z,11.78
2023-03-15T11:03:17.133Z,11.39
2023-03-15T11:06:04.656Z,11.05
2023-03-15T11:08:50.624Z,10.70
2023-03-15T11:11:49.408Z,11.11
2023-03-15T11:14:36.238Z,10.83
2023-03-15T11:17:25.187Z,10.59
2023-03-15T11:20:18.420Z,10.39
2023-03-15T11:23:07.219Z,10.22
2023-03-15T11:25:53.861Z,10.10
2023-03-15T11:28:39.806Z,10.41
2023-03-15T11:31:27.498Z,10.71
2023-03-15T11:34:15.028Z,11.11
2023-03-15T11:37:08.687Z,11.53
2023-03-15T11:40:08.922Z,11.77
2023-03-15T11:42:57.319Z,12.08
2023-03-15T11:45:44.147Z,12.22
2023-03-15T11:48:51.524Z,12.57
2023-03-15T11:51:38.866Z,12.81
2023-03-15T11:54:25.361Z,13.06
2023-03-15T11:57:26.436Z,13.37
2023-03-15T12:00:17.113Z,13.38
2023-03-15T12:03:18.274Z,13.84
2023-03-15T12:06:06.664Z,13.87
2023-03-15T12:08:54.323Z,13.60
2023-03-15T12:11:41.589Z,13.14
2023-03-15T12:14:29.650Z,12.74
2023-03-15T12:17:36.279Z,12.62
2023-03-15T12:20:24.537Z,11.71
2023-03-15T12:23:18.766Z,10.54
2023-03-15T12:26:08.016Z,9.94
2023-03-15T12:28:54.623Z,9.60
2023-03-15T12:31:43.935Z,9.34
2023-03-15T12:34:38.151Z,8.77
2023-03-15T12:37:24.733Z,8.52
2023-03-15T12:40:26.843Z,8.37
2023-03-15T12:43:14.392Z,7.98
2023-03-15T12:46:00.533Z,7.66
2023-03-15T12:49:01.956Z,7.30
2023-03-15T12:51:54.783Z,6.80
2023-03-15T12:54:42.974Z,6.33
2023-03-15T12:57:30.589Z,6.57
2023-03-15T13:00:19.195Z,6.77
2023-03-15T13:03:05.568Z,7.13
2023-03-15T13:06:03.359Z,7.20
2023-03-15T13:08:51.690Z,7.03
2023-03-15T13:11:38.508Z,7.00
2023-03-15T13:14:37.508Z,7.23
2023-03-15T13:17:28.051Z,7.50
2023-03-15T13:20:20.048Z,7.66
2023-03-15T13:23:08.417Z,7.86
2023-03-15T13:25:58.910Z,8.20
2023-03-15T13:28:49.379Z,8.40
2023-03-15T13:31:35.782Z,8.63
2023-03-15T13:34:24.083Z,8.78
2023-03-15T13:37:15.219Z,8.77
2023-03-15T13:40:01.621Z,8.53
2023-03-15T13:42:47.504Z,8.40
2023-03-15T13:45:33.351Z,8.32
2023-03-15T13:48:19.160Z,8.24
2023-03-15T13:51:07.272Z,8.04
2023-03-15T13:53:53.747Z,7.86
2023-03-15T13:56:49.232Z,7.74
2023-03-15T13:59:36.278Z,7.51
2023-03-15T14:02:25.005Z,7.33
2023-03-15T14:05:11.595Z,7.15
2023-03-15T14:07:59.201Z,7.07
2023-03-15T14:10:45.518Z,6.83
2023-03-15T14:13:32.757Z,6.77
2023-03-15T14:16:29.909Z,6.71
2023-03-15T14:19:16.837Z,6.59
2023-03-15T14:22:03.713Z,6.49
2023-03-15T14:24:52.016Z,6.34
2023-03-15T14:27:38.448Z,6.26
2023-03-15T14:30:25.459Z,6.16
2023-03-15T14:33:23.561Z,6.11
2023-03-15T14:36:21.510Z,5.98
2023-03-15T14:39:13.432Z,5.85
2023-03-15T14:42:00.719Z,5.77
2023-03-15T14:44:46.462Z,5.65
2023-03-15T14:47:36.271Z,5.62
2023-03-15T14:50:27.706Z,5.62
2023-03-15T14:53:15.595Z,5.52
2023-03-15T14:56:01.891Z,5.51
2023-03-15T14:58:49.562Z,5.45
2023-03-15T15:01:35.457Z,5.35
2023-03-15T15:04:22.071Z,5.30
2023-03-15T15:07:07.988Z,5.22
2023-03-15T15:09:54.216Z,5.14
2023-03-15T15:12:40.050Z,5.11
2023-03-15T15:15:27.475Z,5.01
2023-03-15T15:18:14.019Z,4.96
2023-03-15T15:21:00.337Z,4.96
2023-03-15T15:23:57.283Z,4.92
2023-03-15T15:26:44.071Z,4.87
2023-03-15T15:29:29.825Z,4.79
2023-03-15T15:32:17.094Z,4.76
2023-03-15T15:35:02.923Z,4.72
2023-03-15T15:37:50.024Z,4.64
2023-03-15T15:40:36.098Z,4.60
2023-03-15T15:43:21.928Z,4.57
2023-03-15T15:46:09.266Z,4.54
2023-03-15T15:48:56.310Z,4.55
2023-03-15T15:51:45.510Z,4.48
2023-03-15T15:54:31.615Z,4.45
2023-03-15T15:57:17.683Z,4.41
2023-03-15T16:00:03.722Z,4.38
2023-03-15T16:02:58.649Z,4.31
2023-03-15T16:05:45.832Z,4.27
2023-03-15T16:08:32.335Z,4.25
2023-03-15T16:11:18.134Z,4.24
2023-03-15T16:14:04.337Z,4.19
2023-03-15T16:16:50.748Z,4.15
2023-03-15T16:19:36.686Z,4.13
2023-03-15T16:22:24.221Z,4.11
2023-03-15T16:25:11.314Z,4.10
2023-03-15T16:27:57.534Z,4.06
2023-03-15T16:30:46.379Z,4.02
2023-03-15T16:33:34.596Z,3.98
2023-03-15T16:36:21.754Z,3.98
2023-03-15T16:39:10.358Z,3.93
2023-03-15T16:41:56.065Z,3.90
2023-03-15T16:44:42.421Z,3.86
2023-03-15T16:47:28.441Z,3.82
2023-03-15T16:50:14.563Z,3.77
2023-03-15T16:53:01.013Z,3.69
2023-03-15T16:55:48.405Z,3.67
2023-03-15T16:58:34.181Z,3.60
2023-03-15T17:01:20.122Z,3.55
2023-03-15T17:04:07.048Z,3.48
2023-03-15T17:06:53.452Z,3.43
2023-03-15T17:09:39.805Z,3.36
2023-03-15T17:12:27.465Z,3.27
2023-03-15T17:15:13.701Z,3.23
2023-03-15T17:18:00.542Z,3.19
2023-03-15T17:20:46.982Z,3.13
2023-03-15T17:23:32.729Z,3.03
2023-03-15T17:26:19.303Z,2.98
2023-03-15T17:29:06.864Z,2.93
2023-03-15T17:31:53.078Z,2.86
2023-03-15T17:34:39.280Z,2.78
2023-03-15T17:37:25.183Z,2.69
2023-03-15T17:40:18.077Z,2.60
2023-03-15T17:43:04.902Z,2.52
2023-03-15T17:45:53.061Z,2.45
2023-03-15T17:48:39.528Z,2.38
2023-03-15T17:51:26.047Z,2.31
2023-03-15T17:54:13.126Z,2.22
2023-03-15T17:56:59.848Z,2.09
2023-03-15T17:59:46.014Z,2.01
2023-03-15T18:02:33.694Z,1.92
2023-03-15T18:05:20.251Z,1.84
2023-03-15T18:08:06.280Z,1.81
2023-03-15T18:10:52.196Z,1.72
2023-03-15T18:13:37.963Z,1.65
2023-03-15T18:16:24.165Z,1.58
2023-03-15T18:19:11.769Z,1.47
2023-03-15T18:21:57.844Z,1.40
2023-03-15T18:24:46.963Z,1.31
2023-03-15T18:27:33.136Z,1.27
2023-03-15T18:30:19.676Z,1.17
2023-03-15T18:33:05.833Z,1.11
2023-03-15T18:35:53.483Z,1.03
2023-03-15T18:38:39.783Z,1.01
2023-03-15T18:41:25.816Z,0.97
2023-03-15T18:44:12.024Z,0.96
2023-03-15T18:46:57.959Z,0.88
2023-03-15T18:49:43.889Z,0.81
2023-03-15T18:52:31.321Z,0.74
2023-03-15T18:55:17.880Z,0.72
2023-03-15T18:58:03.853Z,0.68
2023-03-15T19:00:49.779Z,0.65
2023-03-15T19:03:36.241Z,0.63
2023-03-15T19:06:22.915Z,0.55
2023-03-15T19:09:10.022Z,0.47
2023-03-15T19:11:56.160Z,0.39
2023-03-15T19:14:42.104Z,0.36
2023-03-15T19:17:28.137Z,0.32
2023-03-15T19:20:15.282Z,0.28
2023-03-15T19:23:01.470Z,0.24
2023-03-15T19:25:48.834Z,0.20
2023-03-15T19:28:34.898Z,0.17
2023-03-15T19:31:21.740Z,0.16
2023-03-15T19:34:07.957Z,0.14
2023-03-15T19:36:53.702Z,0.09
2023-03-15T19:39:45.291Z,0.07
2023-03-15T19:42:43.836Z,0.03
2023-03-15T19:45:34.427Z,-0.03
2023-03-15T19:48:23.128Z,-0.06
2023-03-15T19:51:09.291Z,-0.09
2023-03-15T19:53:56.504Z,-0.13
2023-03-15T19:56:42.553Z,-0.17
2023-03-15T19:59:41.871Z,-0.24
2023-03-15T20:02:33.006Z,-0.28
2023-03-15T20:05:25.500Z,-0.28
2023-03-15T20:08:14.188Z,-0.35
2023-03-15T20:14:25.088Z,-0.44
2023-03-15T20:17:15.189Z,-0.48
2023-03-15T20:20:01.318Z,-0.51
2023-03-15T20:22:54.958Z,-0.52
2023-03-15T20:25:41.035Z,-0.57
2023-03-15T20:28:33.202Z,-0.63
2023-03-15T20:31:27.005Z,-0.66
2023-03-15T20:34:20.293Z,-0.69
2023-03-15T20:37:06.766Z,-0.73
2023-03-15T20:39:56.642Z,-0.75
2023-03-15T20:42:42.986Z,-0.79
2023-03-15T20:45:35.140Z,-0.82
2023-03-15T20:48:26.583Z,-0.86
2023-03-15T20:51:20.517Z,-0.92
2023-03-15T20:54:06.687Z,-0.94
2023-03-15T20:56:52.476Z,-0.97
2023-03-15T20:59:40.506Z,-1.01
2023-03-15T21:02:32.493Z,-1.03
2023-03-15T21:05:20.734Z,-1.07
2023-03-15T21:08:30.529Z,-1.11
2023-03-15T21:11:31.201Z,-1.17
2023-03-15T21:14:26.326Z,-1.20
2023-03-15T21:17:14.296Z,-1.23
2023-03-15T21:20:00.654Z,-1.26
2023-03-15T21:22:46.756Z,-1.27
2023-03-15T21:25:33.975Z,-1.32
2023-03-15T21:28:19.753Z,-1.35
2023-03-15T21:31:05.701Z,-1.39
2023-03-15T21:33:51.574Z,-1.40
2023-03-15T21:36:37.410Z,-1.42
2023-03-15T21:39:23.249Z,-1.48
2023-03-15T21:42:10.475Z,-1.47
2023-03-15T21:44:56.883Z,-1.51
2023-03-15T21:47:45.864Z,-1.55
2023-03-15T21:50:31.977Z,-1.59
2023-03-15T21:53:17.949Z,-1.65
2023-03-15T21:56:05.073Z,-1.66
2023-03-15T21:58:52.548Z,-1.72
2023-03-15T22:01:38.648Z,-1.72
2023-03-15T22:04:25.056Z,-1.74
2023-03-15T22:07:12.590Z,-1.82
2023-03-15T22:09:58.312Z,-1.83
2023-03-15T22:12:44.015Z,-1.88
2023-03-15T22:15:31.326Z,-1.90
2023-03-15T22:18:17.569Z,-1.94
2023-03-15T22:21:03.300Z,-1.94
2023-03-15T22:23:49.443Z,-1.95
2023-03-15T22:26:35.298Z,-1.96
2023-03-15T22:29:21.165Z,-1.98
2023-03-15T22:32:09.036Z,-2.04
2023-03-15T22:34:54.947Z,-2.08
2023-03-15T22:37:41.024Z,-2.09
2023-03-15T22:40:27.949Z,-2.12
2023-03-15T22:43:14.164Z,-2.10
2023-03-15T22:46:00.246Z,-2.21
2023-03-15T22:48:47.687Z,-2.23
2023-03-15T22:51:33.409Z,-2.26
2023-03-15T22:54:19.446Z,-2.31
2023-03-15T22:57:05.635Z,-2.33
2023-03-15T22:59:51.722Z,-2.33
2023-03-15T23:02:37.595Z,-2.34
2023-03-15T23:05:25.107Z,-2.34
2023-03-15T23:08:11.262Z,-2.37
2023-03-15T23:10:57.371Z,-2.36
2023-03-15T23:13:48.153Z,-2.38
2023-03-15T23:16:34.271Z,-2.41
2023-03-15T23:19:20.386Z,-2.45
2023-03-15T23:22:08.332Z,-2.47
2023-03-15T23:24:57.758Z,-2.49
2023-03-15T23:27:43.798Z,-2.52
2023-03-15T23:30:34.416Z,-2.52
2023-03-15T23:33:21.392Z,-2.53
2023-03-15T23:36:07.857Z,-2.56
2023-03-15T23:38:55.090Z,-2.60
2023-03-15T23:41:41.245Z,-2.63
2023-03-15T23:44:27.175Z,-2.65
2023-03-15T23:47:13.224Z,-2.69
2023-03-15T23:49:59.221Z,-2.74
2023-03-15T23:52:45.157Z,-2.78
2023-03-15T23:55:33.200Z,-2.78
2023-03-15T23:58:19.287Z,-2.78
